sensor_id;sensor_type;location;lat;lon;timestamp;P1;durP1;ratioP1;P2;durP2;ratioP2
53263;SDS011;39153;52.680;6.172;2023-06-14T00:01:45;6.25;;;1.90;;
53263;SDS011;39153;52.680;6.172;2023-06-14T00:04:14;5.03;;;2.08;;
53263;SDS011;39153;52.680;6.172;2023-06-14T00:06:43;6.35;;;2.38;;
53263;SDS011;39153;52.680;6.172;2023-06-14T00:09:10;8.35;;;2.25;;
53263;SDS011;39153;52.680;6.172;2023-06-14T00:11:42;6.57;;;2.17;;
53263;SDS011;39153;52.680;6.172;2023-06-14T00:14:08;5.78;;;1.98;;
53263;SDS011;39153;52.680;6.172;2023-06-14T00:16:34;7.18;;;2.20;;
53263;SDS011;39153;52.680;6.172;2023-06-14T00:19:03;6.32;;;2.00;;
53263;SDS011;39153;52.680;6.172;2023-06-14T00:21:29;7.45;;;2.08;;
53263;SDS011;39153;52.680;6.172;2023-06-14T00:23:56;8.27;;;2.50;;
53263;SDS011;39153;52.680;6.172;2023-06-14T00:26:23;5.82;;;2.10;;
53263;SDS011;39153;52.680;6.172;2023-06-14T00:28:48;4.82;;;2.15;;
53263;SDS011;39153;52.680;6.172;2023-06-14T00:31:14;5.43;;;1.98;;
53263;SDS011;39153;52.680;6.172;2023-06-14T00:33:40;4.88;;;2.17;;
53263;SDS011;39153;52.680;6.172;2023-06-14T00:36:05;6.40;;;2.00;;
53263;SDS011;39153;52.680;6.172;2023-06-14T00:38:31;5.95;;;2.10;;
53263;SDS011;39153;52.680;6.172;2023-06-14T00:40:57;5.07;;;2.05;;
53263;SDS011;39153;52.680;6.172;2023-06-14T00:43:22;7.32;;;1.92;;
53263;SDS011;39153;52.680;6.172;2023-06-14T00:45:48;5.30;;;2.55;;
53263;SDS011;39153;52.680;6.172;2023-06-14T00:48:14;6.68;;;1.98;;
53263;SDS011;39153;52.680;6.172;2023-06-14T00:50:41;5.25;;;1.98;;
53263;SDS011;39153;52.680;6.172;2023-06-14T00:53:07;6.72;;;2.00;;
53263;SDS011;39153;52.680;6.172;2023-06-14T00:55:32;7.25;;;2.35;;
53263;SDS011;39153;52.680;6.172;2023-06-14T00:57:58;5.72;;;2.08;;
53263;SDS011;39153;52.680;6.172;2023-06-14T01:00:24;8.15;;;2.28;;
53263;SDS011;39153;52.680;6.172;2023-06-14T01:02:50;5.72;;;1.92;;
53263;SDS011;39153;52.680;6.172;2023-06-14T01:05:16;6.55;;;2.35;;
53263;SDS011;39153;52.680;6.172;2023-06-14T01:13:32;6.93;;;2.30;;
53263;SDS011;39153;52.680;6.172;2023-06-14T01:16:00;8.18;;;2.20;;
53263;SDS011;39153;52.680;6.172;2023-06-14T01:18:30;6.13;;;2.20;;
53263;SDS011;39153;52.680;6.172;2023-06-14T01:20:57;6.00;;;2.10;;
53263;SDS011;39153;52.680;6.172;2023-06-14T01:23:23;5.47;;;1.90;;
53263;SDS011;39153;52.680;6.172;2023-06-14T01:25:49;5.85;;;2.00;;
53263;SDS011;39153;52.680;6.172;2023-06-14T01:28:19;8.48;;;2.08;;
53263;SDS011;39153;52.680;6.172;2023-06-14T01:30:49;5.43;;;2.00;;
53263;SDS011;39153;52.680;6.172;2023-06-14T01:33:19;8.55;;;2.20;;
53263;SDS011;39153;52.680;6.172;2023-06-14T01:35:50;6.00;;;1.80;;
53263;SDS011;39153;52.680;6.172;2023-06-14T01:38:17;5.93;;;2.63;;
53263;SDS011;39153;52.680;6.172;2023-06-14T01:40:46;5.65;;;1.92;;
53263;SDS011;39153;52.680;6.172;2023-06-14T01:43:14;5.45;;;1.98;;
53263;SDS011;39153;52.680;6.172;2023-06-14T01:45:44;6.85;;;2.08;;
53263;SDS011;39153;52.680;6.172;2023-06-14T01:48:12;8.20;;;1.90;;
53263;SDS011;39153;52.680;6.172;2023-06-14T01:50:39;8.15;;;2.38;;
53263;SDS011;39153;52.680;6.172;2023-06-14T01:53:09;10.32;;;2.30;;
53263;SDS011;39153;52.680;6.172;2023-06-14T01:55:35;7.20;;;2.60;;
53263;SDS011;39153;52.680;6.172;2023-06-14T01:58:02;6.47;;;2.30;;
53263;SDS011;39153;52.680;6.172;2023-06-14T02:00:29;8.38;;;2.28;;
53263;SDS011;39153;52.680;6.172;2023-06-14T02:02:54;6.13;;;2.10;;
53263;SDS011;39153;52.680;6.172;2023-06-14T02:05:21;7.38;;;1.95;;
53263;SDS011;39153;52.680;6.172;2023-06-14T02:07:47;5.28;;;1.95;;
53263;SDS011;39153;52.680;6.172;2023-06-14T02:10:13;5.55;;;2.10;;
53263;SDS011;39153;52.680;6.172;2023-06-14T02:12:39;5.45;;;2.33;;
53263;SDS011;39153;52.680;6.172;2023-06-14T02:15:05;6.78;;;2.10;;
53263;SDS011;39153;52.680;6.172;2023-06-14T02:17:32;5.95;;;2.25;;
53263;SDS011;39153;52.680;6.172;2023-06-14T02:19:58;7.45;;;2.10;;
53263;SDS011;39153;52.680;6.172;2023-06-14T02:22:24;9.43;;;2.08;;
53263;SDS011;39153;52.680;6.172;2023-06-14T02:24:50;5.50;;;2.10;;
53263;SDS011;39153;52.680;6.172;2023-06-14T02:27:16;5.80;;;2.15;;
53263;SDS011;39153;52.680;6.172;2023-06-14T02:29:41;8.38;;;1.90;;
53263;SDS011;39153;52.680;6.172;2023-06-14T02:32:08;7.72;;;2.38;;
53263;SDS011;39153;52.680;6.172;2023-06-14T02:34:34;3.80;;;1.80;;
53263;SDS011;39153;52.680;6.172;2023-06-14T02:37:00;7.28;;;2.13;;
53263;SDS011;39153;52.680;6.172;2023-06-14T02:39:28;5.22;;;2.10;;
53263;SDS011;39153;52.680;6.172;2023-06-14T02:41:54;5.05;;;2.40;;
53263;SDS011;39153;52.680;6.172;2023-06-14T02:44:23;9.90;;;2.30;;
53263;SDS011;39153;52.680;6.172;2023-06-14T02:46:50;6.25;;;2.30;;
53263;SDS011;39153;52.680;6.172;2023-06-14T02:49:16;4.30;;;2.25;;
53263;SDS011;39153;52.680;6.172;2023-06-14T02:51:42;6.75;;;2.20;;
53263;SDS011;39153;52.680;6.172;2023-06-14T02:54:07;6.18;;;1.88;;
53263;SDS011;39153;52.680;6.172;2023-06-14T02:56:33;7.47;;;2.30;;
53263;SDS011;39153;52.680;6.172;2023-06-14T02:58:59;6.78;;;2.15;;
53263;SDS011;39153;52.680;6.172;2023-06-14T03:01:28;6.32;;;2.42;;
53263;SDS011;39153;52.680;6.172;2023-06-14T03:04:02;5.05;;;2.10;;
53263;SDS011;39153;52.680;6.172;2023-06-14T03:06:28;6.07;;;2.50;;
53263;SDS011;39153;52.680;6.172;2023-06-14T03:08:55;6.97;;;2.10;;
53263;SDS011;39153;52.680;6.172;2023-06-14T03:11:25;9.82;;;2.53;;
53263;SDS011;39153;52.680;6.172;2023-06-14T03:13:52;5.75;;;2.17;;
53263;SDS011;39153;52.680;6.172;2023-06-14T03:16:18;5.65;;;2.00;;
53263;SDS011;39153;52.680;6.172;2023-06-14T03:18:45;7.32;;;2.30;;
53263;SDS011;39153;52.680;6.172;2023-06-14T03:21:11;8.80;;;2.08;;
53263;SDS011;39153;52.680;6.172;2023-06-14T03:23:36;5.55;;;2.20;;
53263;SDS011;39153;52.680;6.172;2023-06-14T03:26:02;5.57;;;2.20;;
53263;SDS011;39153;52.680;6.172;2023-06-14T03:28:28;6.68;;;2.50;;
53263;SDS011;39153;52.680;6.172;2023-06-14T03:30:53;8.27;;;2.42;;
53263;SDS011;39153;52.680;6.172;2023-06-14T03:33:19;6.65;;;2.30;;
53263;SDS011;39153;52.680;6.172;2023-06-14T03:35:46;5.35;;;2.30;;
53263;SDS011;39153;52.680;6.172;2023-06-14T03:38:11;6.88;;;2.00;;
53263;SDS011;39153;52.680;6.172;2023-06-14T03:40:37;6.68;;;2.47;;
53263;SDS011;39153;52.680;6.172;2023-06-14T03:43:03;6.28;;;2.25;;
53263;SDS011;39153;52.680;6.172;2023-06-14T03:45:29;5.88;;;2.50;;
53263;SDS011;39153;52.680;6.172;2023-06-14T03:47:54;9.70;;;2.35;;
53263;SDS011;39153;52.680;6.172;2023-06-14T03:50:21;6.95;;;2.38;;
53263;SDS011;39153;52.680;6.172;2023-06-14T03:52:48;5.72;;;2.22;;
53263;SDS011;39153;52.680;6.172;2023-06-14T03:55:14;4.22;;;2.38;;
53263;SDS011;39153;52.680;6.172;2023-06-14T03:57:41;5.90;;;2.10;;
53263;SDS011;39153;52.680;6.172;2023-06-14T04:00:08;4.78;;;2.08;;
53263;SDS011;39153;52.680;6.172;2023-06-14T04:02:34;6.47;;;2.72;;
53263;SDS011;39153;52.680;6.172;2023-06-14T04:05:01;6.05;;;2.22;;
53263;SDS011;39153;52.680;6.172;2023-06-14T04:07:28;6.32;;;2.25;;
53263;SDS011;39153;52.680;6.172;2023-06-14T04:09:54;5.30;;;2.50;;
53263;SDS011;39153;52.680;6.172;2023-06-14T04:12:20;7.05;;;2.30;;
53263;SDS011;39153;52.680;6.172;2023-06-14T04:14:46;6.72;;;2.22;;
53263;SDS011;39153;52.680;6.172;2023-06-14T04:17:11;6.45;;;2.60;;
53263;SDS011;39153;52.680;6.172;2023-06-14T04:19:37;6.60;;;2.20;;
53263;SDS011;39153;52.680;6.172;2023-06-14T04:22:03;5.25;;;2.17;;
53263;SDS011;39153;52.680;6.172;2023-06-14T04:24:29;5.45;;;2.05;;
53263;SDS011;39153;52.680;6.172;2023-06-14T04:26:57;6.45;;;2.15;;
53263;SDS011;39153;52.680;6.172;2023-06-14T04:29:24;7.72;;;2.47;;
53263;SDS011;39153;52.680;6.172;2023-06-14T04:31:53;8.65;;;2.55;;
53263;SDS011;39153;52.680;6.172;2023-06-14T04:34:19;6.85;;;2.67;;
53263;SDS011;39153;52.680;6.172;2023-06-14T04:36:46;5.13;;;2.47;;
53263;SDS011;39153;52.680;6.172;2023-06-14T04:39:21;6.70;;;2.20;;
53263;SDS011;39153;52.680;6.172;2023-06-14T04:41:47;5.22;;;2.47;;
53263;SDS011;39153;52.680;6.172;2023-06-14T04:44:18;4.45;;;2.42;;
53263;SDS011;39153;52.680;6.172;2023-06-14T04:46:45;7.05;;;2.30;;
53263;SDS011;39153;52.680;6.172;2023-06-14T04:49:20;5.40;;;2.17;;
53263;SDS011;39153;52.680;6.172;2023-06-14T04:51:45;5.45;;;2.55;;
53263;SDS011;39153;52.680;6.172;2023-06-14T04:54:12;5.45;;;2.28;;
53263;SDS011;39153;52.680;6.172;2023-06-14T04:56:43;5.40;;;2.45;;
53263;SDS011;39153;52.680;6.172;2023-06-14T04:59:10;5.20;;;2.22;;
53263;SDS011;39153;52.680;6.172;2023-06-14T05:01:40;7.47;;;2.60;;
53263;SDS011;39153;52.680;6.172;2023-06-14T05:04:06;11.75;;;2.60;;
53263;SDS011;39153;52.680;6.172;2023-06-14T05:06:31;8.43;;;2.80;;
53263;SDS011;39153;52.680;6.172;2023-06-14T05:08:58;5.03;;;2.60;;
53263;SDS011;39153;52.680;6.172;2023-06-14T05:11:23;5.88;;;2.83;;
53263;SDS011;39153;52.680;6.172;2023-06-14T05:13:49;6.20;;;2.45;;
53263;SDS011;39153;52.680;6.172;2023-06-14T05:16:16;5.55;;;2.60;;
53263;SDS011;39153;52.680;6.172;2023-06-14T05:18:44;6.53;;;2.80;;
53263;SDS011;39153;52.680;6.172;2023-06-14T05:21:11;5.65;;;2.63;;
53263;SDS011;39153;52.680;6.172;2023-06-14T05:23:36;10.75;;;2.60;;
53263;SDS011;39153;52.680;6.172;2023-06-14T05:26:02;5.50;;;2.50;;
53263;SDS011;39153;52.680;6.172;2023-06-14T05:28:29;5.90;;;2.50;;
53263;SDS011;39153;52.680;6.172;2023-06-14T05:30:55;5.70;;;2.70;;
53263;SDS011;39153;52.680;6.172;2023-06-14T05:33:21;6.38;;;2.65;;
53263;SDS011;39153;52.680;6.172;2023-06-14T05:35:47;7.65;;;2.72;;
53263;SDS011;39153;52.680;6.172;2023-06-14T05:38:13;8.25;;;2.75;;
53263;SDS011;39153;52.680;6.172;2023-06-14T05:40:38;6.55;;;2.90;;
53263;SDS011;39153;52.680;6.172;2023-06-14T05:43:04;5.63;;;2.53;;
53263;SDS011;39153;52.680;6.172;2023-06-14T05:45:30;7.28;;;2.60;;
53263;SDS011;39153;52.680;6.172;2023-06-14T05:47:55;7.68;;;2.83;;
53263;SDS011;39153;52.680;6.172;2023-06-14T05:50:21;5.38;;;2.80;;
53263;SDS011;39153;52.680;6.172;2023-06-14T05:52:47;5.95;;;2.63;;
53263;SDS011;39153;52.680;6.172;2023-06-14T05:55:12;21.13;;;5.18;;
53263;SDS011;39153;52.680;6.172;2023-06-14T05:57:38;7.90;;;2.80;;
53263;SDS011;39153;52.680;6.172;2023-06-14T06:00:04;4.97;;;2.40;;
53263;SDS011;39153;52.680;6.172;2023-06-14T06:02:35;8.60;;;3.60;;
53263;SDS011;39153;52.680;6.172;2023-06-14T06:05:01;8.50;;;2.63;;
53263;SDS011;39153;52.680;6.172;2023-06-14T06:07:27;8.02;;;2.80;;
53263;SDS011;39153;52.680;6.172;2023-06-14T06:09:53;6.05;;;2.50;;
53263;SDS011;39153;52.680;6.172;2023-06-14T06:12:19;6.47;;;2.70;;
53263;SDS011;39153;52.680;6.172;2023-06-14T06:14:44;7.15;;;2.55;;
53263;SDS011;39153;52.680;6.172;2023-06-14T06:17:10;7.90;;;2.28;;
53263;SDS011;39153;52.680;6.172;2023-06-14T06:19:36;6.75;;;2.45;;
53263;SDS011;39153;52.680;6.172;2023-06-14T06:22:01;6.50;;;2.35;;
53263;SDS011;39153;52.680;6.172;2023-06-14T06:24:29;5.93;;;2.30;;
53263;SDS011;39153;52.680;6.172;2023-06-14T06:26:55;5.82;;;2.45;;
53263;SDS011;39153;52.680;6.172;2023-06-14T06:29:21;5.93;;;2.53;;
53263;SDS011;39153;52.680;6.172;2023-06-14T06:31:46;7.60;;;2.40;;
53263;SDS011;39153;52.680;6.172;2023-06-14T06:34:12;5.45;;;2.42;;
53263;SDS011;39153;52.680;6.172;2023-06-14T06:36:38;4.43;;;2.00;;
53263;SDS011;39153;52.680;6.172;2023-06-14T06:39:03;5.90;;;2.20;;
53263;SDS011;39153;52.680;6.172;2023-06-14T06:41:35;5.38;;;2.30;;
53263;SDS011;39153;52.680;6.172;2023-06-14T06:44:03;3.50;;;1.85;;
53263;SDS011;39153;52.680;6.172;2023-06-14T06:46:28;5.10;;;2.08;;
53263;SDS011;39153;52.680;6.172;2023-06-14T06:48:54;4.93;;;2.47;;
53263;SDS011;39153;52.680;6.172;2023-06-14T06:51:20;5.55;;;2.05;;
53263;SDS011;39153;52.680;6.172;2023-06-14T06:53:51;3.53;;;1.90;;
53263;SDS011;39153;52.680;6.172;2023-06-14T06:56:20;5.18;;;1.70;;
53263;SDS011;39153;52.680;6.172;2023-06-14T06:58:48;6.18;;;2.22;;
53263;SDS011;39153;52.680;6.172;2023-06-14T07:01:15;5.20;;;2.00;;
53263;SDS011;39153;52.680;6.172;2023-06-14T07:03:41;7.07;;;2.33;;
53263;SDS011;39153;52.680;6.172;2023-06-14T07:06:07;5.45;;;1.90;;
53263;SDS011;39153;52.680;6.172;2023-06-14T07:08:32;5.72;;;2.00;;
53263;SDS011;39153;52.680;6.172;2023-06-14T07:10:58;9.00;;;2.20;;
53263;SDS011;39153;52.680;6.172;2023-06-14T07:13:24;4.63;;;2.10;;
53263;SDS011;39153;52.680;6.172;2023-06-14T07:15:50;6.60;;;2.03;;
53263;SDS011;39153;52.680;6.172;2023-06-14T07:18:18;7.50;;;2.10;;
53263;SDS011;39153;52.680;6.172;2023-06-14T07:20:44;5.25;;;1.90;;
53263;SDS011;39153;52.680;6.172;2023-06-14T07:23:09;4.72;;;1.98;;
53263;SDS011;39153;52.680;6.172;2023-06-14T07:25:35;5.07;;;1.95;;
53263;SDS011;39153;52.680;6.172;2023-06-14T07:28:01;4.47;;;1.90;;
53263;SDS011;39153;52.680;6.172;2023-06-14T07:30:27;6.05;;;2.28;;
53263;SDS011;39153;52.680;6.172;2023-06-14T07:32:55;5.30;;;2.03;;
53263;SDS011;39153;52.680;6.172;2023-06-14T07:35:21;5.85;;;1.70;;
53263;SDS011;39153;52.680;6.172;2023-06-14T07:37:46;5.38;;;1.85;;
53263;SDS011;39153;52.680;6.172;2023-06-14T07:40:12;4.97;;;2.20;;
53263;SDS011;39153;52.680;6.172;2023-06-14T07:42:38;6.07;;;1.88;;
53263;SDS011;39153;52.680;6.172;2023-06-14T07:45:05;8.07;;;2.95;;
53263;SDS011;39153;52.680;6.172;2023-06-14T07:47:31;6.68;;;2.50;;
53263;SDS011;39153;52.680;6.172;2023-06-14T07:49:57;4.63;;;1.80;;
53263;SDS011;39153;52.680;6.172;2023-06-14T07:52:23;4.88;;;2.05;;
53263;SDS011;39153;52.680;6.172;2023-06-14T07:54:50;6.75;;;2.05;;
53263;SDS011;39153;52.680;6.172;2023-06-14T07:57:15;4.45;;;1.75;;
53263;SDS011;39153;52.680;6.172;2023-06-14T07:59:41;4.35;;;2.10;;
53263;SDS011;39153;52.680;6.172;2023-06-14T08:02:07;4.63;;;1.80;;
53263;SDS011;39153;52.680;6.172;2023-06-14T08:04:33;7.10;;;1.80;;
53263;SDS011;39153;52.680;6.172;2023-06-14T08:06:59;5.13;;;1.92;;
53263;SDS011;39153;52.680;6.172;2023-06-14T08:09:25;6.45;;;1.80;;
53263;SDS011;39153;52.680;6.172;2023-06-14T08:11:53;5.43;;;2.00;;
53263;SDS011;39153;52.680;6.172;2023-06-14T08:14:18;4.22;;;1.80;;
53263;SDS011;39153;52.680;6.172;2023-06-14T08:16:44;5.28;;;1.88;;
53263;SDS011;39153;52.680;6.172;2023-06-14T08:19:10;3.30;;;1.50;;
53263;SDS011;39153;52.680;6.172;2023-06-14T08:21:36;5.22;;;1.80;;
53263;SDS011;39153;52.680;6.172;2023-06-14T08:24:01;5.53;;;1.60;;
53263;SDS011;39153;52.680;6.172;2023-06-14T08:26:27;3.97;;;1.60;;
53263;SDS011;39153;52.680;6.172;2023-06-14T08:28:56;5.97;;;1.80;;
53263;SDS011;39153;52.680;6.172;2023-06-14T08:31:23;5.50;;;1.80;;
53263;SDS011;39153;52.680;6.172;2023-06-14T08:33:49;4.05;;;1.88;;
53263;SDS011;39153;52.680;6.172;2023-06-14T08:36:15;6.53;;;2.25;;
53263;SDS011;39153;52.680;6.172;2023-06-14T08:38:41;4.38;;;1.80;;
53263;SDS011;39153;52.680;6.172;2023-06-14T08:41:06;4.25;;;2.00;;
53263;SDS011;39153;52.680;6.172;2023-06-14T08:43:35;5.80;;;2.10;;
53263;SDS011;39153;52.680;6.172;2023-06-14T08:46:03;4.25;;;1.67;;
53263;SDS011;39153;52.680;6.172;2023-06-14T08:48:29;3.67;;;1.80;;
53263;SDS011;39153;52.680;6.172;2023-06-14T08:50:59;5.03;;;1.98;;
53263;SDS011;39153;52.680;6.172;2023-06-14T08:53:31;4.82;;;1.60;;
53263;SDS011;39153;52.680;6.172;2023-06-14T08:55:59;5.35;;;1.60;;
53263;SDS011;39153;52.680;6.172;2023-06-14T08:58:27;3.45;;;1.70;;
53263;SDS011;39153;52.680;6.172;2023-06-14T09:00:57;4.03;;;1.50;;
53263;SDS011;39153;52.680;6.172;2023-06-14T09:03:24;4.07;;;1.38;;
53263;SDS011;39153;52.680;6.172;2023-06-14T09:05:55;5.57;;;1.70;;
53263;SDS011;39153;52.680;6.172;2023-06-14T09:08:28;6.93;;;1.60;;
53263;SDS011;39153;52.680;6.172;2023-06-14T09:10:55;3.92;;;1.60;;
53263;SDS011;39153;52.680;6.172;2023-06-14T09:13:22;5.15;;;1.52;;
53263;SDS011;39153;52.680;6.172;2023-06-14T09:15:48;4.30;;;1.50;;
53263;SDS011;39153;52.680;6.172;2023-06-14T09:18:13;4.15;;;1.55;;
53263;SDS011;39153;52.680;6.172;2023-06-14T09:20:39;3.92;;;1.58;;
53263;SDS011;39153;52.680;6.172;2023-06-14T09:23:06;6.57;;;1.95;;
53263;SDS011;39153;52.680;6.172;2023-06-14T09:25:32;6.97;;;1.67;;
53263;SDS011;39153;52.680;6.172;2023-06-14T09:28:07;3.13;;;1.50;;
53263;SDS011;39153;52.680;6.172;2023-06-14T09:30:33;4.90;;;1.60;;
53263;SDS011;39153;52.680;6.172;2023-06-14T09:32:59;3.17;;;1.48;;
53263;SDS011;39153;52.680;6.172;2023-06-14T09:35:24;3.42;;;1.60;;
53263;SDS011;39153;52.680;6.172;2023-06-14T09:37:50;6.80;;;1.50;;
53263;SDS011;39153;52.680;6.172;2023-06-14T09:40:22;5.47;;;1.80;;
53263;SDS011;39153;52.680;6.172;2023-06-14T09:42:48;4.25;;;1.65;;
53263;SDS011;39153;52.680;6.172;2023-06-14T09:45:14;3.60;;;1.67;;
53263;SDS011;39153;52.680;6.172;2023-06-14T09:47:46;4.03;;;1.50;;
53263;SDS011;39153;52.680;6.172;2023-06-14T09:50:14;3.47;;;1.42;;
53263;SDS011;39153;52.680;6.172;2023-06-14T09:52:40;3.80;;;1.52;;
53263;SDS011;39153;52.680;6.172;2023-06-14T09:55:13;2.50;;;1.20;;
53263;SDS011;39153;52.680;6.172;2023-06-14T09:57:41;3.97;;;1.60;;
53263;SDS011;39153;52.680;6.172;2023-06-14T10:00:09;4.80;;;1.40;;
53263;SDS011;39153;52.680;6.172;2023-06-14T10:02:38;8.75;;;1.55;;
53263;SDS011;39153;52.680;6.172;2023-06-14T10:05:08;3.20;;;1.35;;
53263;SDS011;39153;52.680;6.172;2023-06-14T10:07:40;5.53;;;1.58;;
53263;SDS011;39153;52.680;6.172;2023-06-14T10:10:08;4.20;;;1.50;;
53263;SDS011;39153;52.680;6.172;2023-06-14T10:12:34;5.05;;;1.70;;
53263;SDS011;39153;52.680;6.172;2023-06-14T10:15:01;3.03;;;1.30;;
53263;SDS011;39153;52.680;6.172;2023-06-14T10:20:26;6.20;;;1.30;;
53263;SDS011;39153;52.680;6.172;2023-06-14T10:23:08;6.00;;;1.40;;
53263;SDS011;39153;52.680;6.172;2023-06-14T10:25:37;3.03;;;1.10;;
53263;SDS011;39153;52.680;6.172;2023-06-14T10:31:01;6.38;;;1.60;;
53263;SDS011;39153;52.680;6.172;2023-06-14T10:33:31;2.80;;;1.08;;
53263;SDS011;39153;52.680;6.172;2023-06-14T10:36:07;5.10;;;1.30;;
53263;SDS011;39153;52.680;6.172;2023-06-14T10:38:45;3.58;;;1.20;;
53263;SDS011;39153;52.680;6.172;2023-06-14T10:41:11;4.75;;;1.10;;
53263;SDS011;39153;52.680;6.172;2023-06-14T10:43:37;2.58;;;1.10;;
53263;SDS011;39153;52.680;6.172;2023-06-14T10:46:15;3.97;;;1.00;;
53263;SDS011;39153;52.680;6.172;2023-06-14T10:48:43;2.65;;;1.33;;
53263;SDS011;39153;52.680;6.172;2023-06-14T10:51:16;7.18;;;1.40;;
53263;SDS011;39153;52.680;6.172;2023-06-14T10:53:49;2.92;;;1.27;;
53263;SDS011;39153;52.680;6.172;2023-06-14T10:56:23;3.03;;;1.25;;
53263;SDS011;39153;52.680;6.172;2023-06-14T10:58:53;3.15;;;0.95;;
53263;SDS011;39153;52.680;6.172;2023-06-14T11:01:23;3.97;;;1.42;;
53263;SDS011;39153;52.680;6.172;2023-06-14T11:04:06;6.30;;;1.27;;
53263;SDS011;39153;52.680;6.172;2023-06-14T11:12:09;6.00;;;1.40;;
53263;SDS011;39153;52.680;6.172;2023-06-14T11:14:37;3.85;;;0.90;;
53263;SDS011;39153;52.680;6.172;2023-06-14T11:17:03;5.80;;;1.20;;
53263;SDS011;39153;52.680;6.172;2023-06-14T11:19:29;3.50;;;1.17;;
53263;SDS011;39153;52.680;6.172;2023-06-14T11:21:56;3.38;;;1.38;;
53263;SDS011;39153;52.680;6.172;2023-06-14T11:24:23;4.38;;;1.10;;
53263;SDS011;39153;52.680;6.172;2023-06-14T11:26:49;6.40;;;1.27;;
53263;SDS011;39153;52.680;6.172;2023-06-14T11:29:15;5.40;;;1.15;;
53263;SDS011;39153;52.680;6.172;2023-06-14T11:31:45;3.33;;;1.10;;
53263;SDS011;39153;52.680;6.172;2023-06-14T11:34:11;3.63;;;1.20;;
53263;SDS011;39153;52.680;6.172;2023-06-14T11:36:38;3.60;;;1.15;;
53263;SDS011;39153;52.680;6.172;2023-06-14T11:39:04;8.77;;;1.55;;
53263;SDS011;39153;52.680;6.172;2023-06-14T11:41:52;3.35;;;1.30;;
53263;SDS011;39153;52.680;6.172;2023-06-14T11:44:18;3.72;;;1.30;;
53263;SDS011;39153;52.680;6.172;2023-06-14T11:46:43;4.40;;;1.25;;
53263;SDS011;39153;52.680;6.172;2023-06-14T11:49:09;4.55;;;1.13;;
53263;SDS011;39153;52.680;6.172;2023-06-14T11:51:35;5.70;;;1.20;;
53263;SDS011;39153;52.680;6.172;2023-06-14T11:54:02;8.38;;;1.38;;
53263;SDS011;39153;52.680;6.172;2023-06-14T11:56:29;7.45;;;1.40;;
53263;SDS011;39153;52.680;6.172;2023-06-14T11:58:58;6.95;;;1.50;;
53263;SDS011;39153;52.680;6.172;2023-06-14T12:01:24;3.50;;;1.27;;
53263;SDS011;39153;52.680;6.172;2023-06-14T12:03:51;4.22;;;1.27;;
53263;SDS011;39153;52.680;6.172;2023-06-14T12:06:25;2.92;;;1.30;;
53263;SDS011;39153;52.680;6.172;2023-06-14T12:08:58;2.90;;;1.30;;
53263;SDS011;39153;52.680;6.172;2023-06-14T12:11:23;4.22;;;1.10;;
53263;SDS011;39153;52.680;6.172;2023-06-14T12:13:53;3.47;;;1.52;;
53263;SDS011;39153;52.680;6.172;2023-06-14T12:16:19;4.63;;;1.33;;
53263;SDS011;39153;52.680;6.172;2023-06-14T12:18:44;5.07;;;1.20;;
53263;SDS011;39153;52.680;6.172;2023-06-14T12:21:10;6.07;;;1.73;;
53263;SDS011;39153;52.680;6.172;2023-06-14T12:26:12;3.38;;;1.20;;
53263;SDS011;39153;52.680;6.172;2023-06-14T12:28:39;3.80;;;1.35;;
53263;SDS011;39153;52.680;6.172;2023-06-14T12:31:06;4.20;;;1.33;;
53263;SDS011;39153;52.680;6.172;2023-06-14T12:33:32;5.32;;;1.40;;
53263;SDS011;39153;52.680;6.172;2023-06-14T12:36:04;4.78;;;1.27;;
53263;SDS011;39153;52.680;6.172;2023-06-14T12:38:32;4.53;;;1.17;;
53263;SDS011;39153;52.680;6.172;2023-06-14T12:40:58;5.07;;;1.42;;
53263;SDS011;39153;52.680;6.172;2023-06-14T12:43:24;2.78;;;1.20;;
53263;SDS011;39153;52.680;6.172;2023-06-14T12:45:50;4.18;;;1.45;;
53263;SDS011;39153;52.680;6.172;2023-06-14T12:48:15;3.00;;;1.15;;
53263;SDS011;39153;52.680;6.172;2023-06-14T12:50:41;3.47;;;1.17;;
53263;SDS011;39153;52.680;6.172;2023-06-14T12:53:07;4.00;;;1.10;;
53263;SDS011;39153;52.680;6.172;2023-06-14T12:55:33;4.22;;;1.30;;
53263;SDS011;39153;52.680;6.172;2023-06-14T12:57:59;6.68;;;1.30;;
53263;SDS011;39153;52.680;6.172;2023-06-14T13:00:25;7.28;;;1.40;;
53263;SDS011;39153;52.680;6.172;2023-06-14T13:02:55;3.58;;;1.10;;
53263;SDS011;39153;52.680;6.172;2023-06-14T13:05:24;1.95;;;1.10;;
53263;SDS011;39153;52.680;6.172;2023-06-14T13:07:50;5.35;;;1.25;;
53263;SDS011;39153;52.680;6.172;2023-06-14T13:10:16;4.30;;;1.30;;
53263;SDS011;39153;52.680;6.172;2023-06-14T13:12:42;3.20;;;1.40;;
53263;SDS011;39153;52.680;6.172;2023-06-14T13:15:08;2.78;;;1.17;;
53263;SDS011;39153;52.680;6.172;2023-06-14T13:17:34;4.43;;;1.23;;
53263;SDS011;39153;52.680;6.172;2023-06-14T13:20:06;5.05;;;1.40;;
53263;SDS011;39153;52.680;6.172;2023-06-14T13:22:33;2.53;;;1.33;;
53263;SDS011;39153;52.680;6.172;2023-06-14T13:24:59;3.53;;;1.42;;
53263;SDS011;39153;52.680;6.172;2023-06-14T13:27:26;4.72;;;1.10;;
53263;SDS011;39153;52.680;6.172;2023-06-14T13:29:52;3.35;;;1.10;;
53263;SDS011;39153;52.680;6.172;2023-06-14T13:32:20;4.28;;;1.17;;
53263;SDS011;39153;52.680;6.172;2023-06-14T13:34:46;5.35;;;1.20;;
53263;SDS011;39153;52.680;6.172;2023-06-14T13:37:11;3.20;;;1.20;;
53263;SDS011;39153;52.680;6.172;2023-06-14T13:39:37;3.95;;;1.40;;
53263;SDS011;39153;52.680;6.172;2023-06-14T13:42:04;5.43;;;1.20;;
53263;SDS011;39153;52.680;6.172;2023-06-14T13:44:30;4.65;;;1.20;;
53263;SDS011;39153;52.680;6.172;2023-06-14T13:46:55;5.10;;;1.33;;
53263;SDS011;39153;52.680;6.172;2023-06-14T13:49:21;5.47;;;1.30;;
53263;SDS011;39153;52.680;6.172;2023-06-14T13:51:47;3.63;;;1.40;;
53263;SDS011;39153;52.680;6.172;2023-06-14T13:54:13;4.13;;;1.30;;
53263;SDS011;39153;52.680;6.172;2023-06-14T13:56:42;3.78;;;1.30;;
53263;SDS011;39153;52.680;6.172;2023-06-14T13:59:07;3.45;;;1.20;;
53263;SDS011;39153;52.680;6.172;2023-06-14T14:01:34;3.90;;;1.10;;
53263;SDS011;39153;52.680;6.172;2023-06-14T14:04:00;3.80;;;1.27;;
53263;SDS011;39153;52.680;6.172;2023-06-14T14:06:26;4.35;;;1.13;;
53263;SDS011;39153;52.680;6.172;2023-06-14T14:08:52;3.90;;;1.20;;
53263;SDS011;39153;52.680;6.172;2023-06-14T14:11:18;3.22;;;1.40;;
53263;SDS011;39153;52.680;6.172;2023-06-14T14:13:44;2.47;;;0.93;;
53263;SDS011;39153;52.680;6.172;2023-06-14T14:16:10;5.65;;;1.35;;
53263;SDS011;39153;52.680;6.172;2023-06-14T14:18:36;4.13;;;1.13;;
53263;SDS011;39153;52.680;6.172;2023-06-14T14:21:02;4.00;;;1.30;;
53263;SDS011;39153;52.680;6.172;2023-06-14T14:23:28;3.05;;;1.20;;
53263;SDS011;39153;52.680;6.172;2023-06-14T14:25:54;4.75;;;1.40;;
53263;SDS011;39153;52.680;6.172;2023-06-14T14:28:20;5.85;;;1.25;;
53263;SDS011;39153;52.680;6.172;2023-06-14T14:30:46;4.10;;;1.20;;
53263;SDS011;39153;52.680;6.172;2023-06-14T14:33:15;2.65;;;1.00;;
53263;SDS011;39153;52.680;6.172;2023-06-14T14:35:42;5.78;;;1.40;;
53263;SDS011;39153;52.680;6.172;2023-06-14T14:38:11;2.95;;;1.20;;
53263;SDS011;39153;52.680;6.172;2023-06-14T14:40:37;3.60;;;1.00;;
53263;SDS011;39153;52.680;6.172;2023-06-14T14:43:03;3.33;;;1.10;;
53263;SDS011;39153;52.680;6.172;2023-06-14T14:45:30;4.57;;;1.38;;
53263;SDS011;39153;52.680;6.172;2023-06-14T14:47:56;6.00;;;1.50;;
53263;SDS011;39153;52.680;6.172;2023-06-14T14:50:22;3.40;;;1.13;;
53263;SDS011;39153;52.680;6.172;2023-06-14T14:52:48;1.92;;;1.05;;
53263;SDS011;39153;52.680;6.172;2023-06-14T14:55:13;3.72;;;1.30;;
53263;SDS011;39153;52.680;6.172;2023-06-14T14:57:39;2.95;;;0.90;;
53263;SDS011;39153;52.680;6.172;2023-06-14T15:00:05;2.90;;;1.33;;
53263;SDS011;39153;52.680;6.172;2023-06-14T15:02:31;3.92;;;1.10;;
53263;SDS011;39153;52.680;6.172;2023-06-14T15:04:57;4.40;;;1.20;;
53263;SDS011;39153;52.680;6.172;2023-06-14T15:07:26;2.70;;;1.17;;